< < Back
Terminal Aerodrome Forecast


Current Version              Previous Versions:   1  2  3  4  5  6  7  8  9  

Terminal Aerodrome Forecast

190
FTUS44 KBMX 240520
TAFMGM
TAF
KMGM 240520Z 2406/2506 00000KT P6SM SCT250
      TEMPO 2408/2412 5SM BR SCT007 BKN040
     FM241500 14004KT P6SM SCT250
     FM241800 13005KT P6SM VCTS SCT050CB SCT250=



Latest METAR

954
SAUS80 KWBC 250000 RRA
MTRMGM
METAR KMGM 242353Z 16004KT 10SM CLR 33/22 A2997 RMK AO2 SLP144 T03330222
10356 20333 53004


USA.gov is the U.S. government's official web portal to all federal, state and local government web resources and services.